Time;durP1;ratioP1;P1;durP2;ratioP2;P2;SDS_P1;SDS_P2;PMS_P1;PMS_P2;Temp;Humidity;BMP_temperature;BMP_pressure;BME280_temperature;BME280_humidity;BME280_pressure;Samples;Min_cycle;Max_cycle;Signal;HPM_P1;HPM_P2
2022/08/01 00:00:26;;;;;;;5.40;2.72;;;19.60;99.90;;;;;;5012928;28;20030;-85
2022/08/01 00:02:52;;;;;;;3.78;2.88;;;19.50;99.90;;;;;;4996522;28;20080;-85
2022/08/01 00:05:17;;;;;;;3.00;2.50;;;19.50;99.90;;;;;;4996402;28;20069;-85
2022/08/01 00:07:43;;;;;;;7.15;3.22;;;19.40;99.90;;;;;;5012350;28;20533;-85
2022/08/01 00:10:12;;;;;;;3.92;2.90;;;19.40;99.90;;;;;;5012620;28;20076;-85
2022/08/01 00:12:38;;;;;;;8.10;3.08;;;19.30;99.90;;;;;;4995970;28;20428;-85
2022/08/01 00:15:08;;;;;;;7.63;2.97;;;19.30;99.90;;;;;;4995879;28;20030;-86
2022/08/01 00:17:34;;;;;;;5.72;2.85;;;19.30;99.90;;;;;;4996019;28;20072;-85
2022/08/01 00:20:02;;;;;;;3.15;2.85;;;19.40;99.90;;;;;;4995939;28;20038;-85
2022/08/01 00:22:30;;;;;;;8.48;3.25;;;19.40;99.90;;;;;;4996096;28;20036;-85
2022/08/01 00:24:55;;;;;;;9.32;3.13;;;19.30;99.90;;;;;;4995688;28;20385;-85
2022/08/01 00:27:21;;;;;;;6.03;2.95;;;19.30;99.90;;;;;;5012092;28;20034;-85
2022/08/01 00:29:47;;;;;;;3.80;2.97;;;19.20;99.90;;;;;;5012128;28;20080;-85
2022/08/01 00:32:12;;;;;;;5.85;2.83;;;19.10;99.90;;;;;;4995512;28;20037;-86
2022/08/01 00:34:38;;;;;;;9.95;2.97;;;19.00;99.90;;;;;;5011725;28;20013;-85
2022/08/01 00:37:10;;;;;;;4.43;2.83;;;19.20;99.90;;;;;;4995873;28;20037;-85
2022/08/01 00:39:35;;;;;;;8.07;3.00;;;19.20;99.90;;;;;;5012168;28;20041;-84
2022/08/01 00:42:09;;;;;;;5.32;3.38;;;19.20;99.90;;;;;;4995638;28;20026;-84
2022/08/01 00:44:35;;;;;;;5.90;3.30;;;19.20;99.90;;;;;;4995139;28;20091;-86
2022/08/01 00:47:01;;;;;;;5.10;2.65;;;19.10;99.90;;;;;;5011963;28;20030;-85
2022/08/01 00:49:27;;;;;;;3.47;2.97;;;19.00;99.90;;;;;;4995189;28;20432;-85
2022/08/01 00:51:54;;;;;;;3.97;3.10;;;18.90;99.90;;;;;;4995972;28;20065;-85
2022/08/01 00:54:57;;;;;;;4.93;2.92;;;18.90;99.90;;;;;;4998062;28;20022;-85
2022/08/01 00:57:23;;;;;;;3.65;3.05;;;18.90;99.90;;;;;;5002095;28;20030;-86
2022/08/01 00:59:48;;;;;;;4.93;3.00;;;18.90;99.90;;;;;;5001984;28;20030;-85
2022/08/01 01:02:14;;;;;;;4.00;2.90;;;18.90;99.90;;;;;;5002023;28;20037;-85
2022/08/01 01:04:40;;;;;;;7.38;3.13;;;19.00;99.90;;;;;;5019276;28;20037;-85
2022/08/01 01:07:31;;;;;;;6.18;3.30;;;18.90;99.90;;;;;;5018111;28;20393;-85
2022/08/01 01:10:28;;;;;;;7.30;3.20;;;18.90;99.90;;;;;;5005453;28;20040;-95
2022/08/01 01:13:10;;;;;;;7.88;3.38;;;18.90;99.90;;;;;;5014855;28;20060;-92
2022/08/01 01:15:55;;;;;;;7.38;3.00;;;19.00;99.90;;;;;;5014523;28;20034;-94
2022/08/01 01:18:28;;;;;;;3.53;3.15;;;19.00;99.90;;;;;;5032801;28;20018;-92
2022/08/01 01:21:17;;;;;;;4.18;2.88;;;19.00;99.90;;;;;;5014734;28;20109;-94
2022/08/01 01:24:16;;;;;;;5.07;3.28;;;18.90;99.90;;;;;;5016680;28;20049;-94
2022/08/01 01:27:13;;;;;;;6.35;3.00;;;18.90;99.90;;;;;;5033399;28;20038;-93
2022/08/01 01:29:50;;;;;;;5.07;3.28;;;18.80;99.90;;;;;;5032782;28;20042;-94
2022/08/01 01:32:34;;;;;;;7.40;3.10;;;18.80;99.90;;;;;;5017745;28;20026;-94
2022/08/01 01:35:27;;;;;;;4.88;2.78;;;18.70;99.90;;;;;;5039864;28;20038;-93
2022/08/01 01:38:04;;;;;;;4.13;3.17;;;18.60;99.90;;;;;;5012659;28;20034;-93
2022/08/01 01:40:31;;;;;;;3.60;2.85;;;18.50;99.90;;;;;;5019977;28;20065;-92
2022/08/01 01:42:57;;;;;;;4.03;3.35;;;18.40;99.90;;;;;;5015009;28;20036;-95
2022/08/01 01:45:25;;;;;;;9.32;3.60;;;18.30;99.90;;;;;;5000723;28;20017;-94
2022/08/01 01:47:52;;;;;;;4.82;3.10;;;18.20;99.90;;;;;;5018773;28;20501;-94
2022/08/01 01:50:21;;;;;;;4.07;3.30;;;18.10;99.90;;;;;;5016164;28;20030;-95
2022/08/01 01:52:52;;;;;;;7.22;4.32;;;18.10;99.90;;;;;;5015167;28;20033;-93
2022/08/01 01:55:19;;;;;;;;;;;17.90;99.90;;;;;;5019218;28;20072;-94
2022/08/01 01:57:46;;;;;;;4.18;3.53;;;17.80;99.90;;;;;;5017769;28;19905;-94
2022/08/01 02:00:16;;;;;;;6.93;3.42;;;17.70;99.90;;;;;;5004256;28;20029;-93
2022/08/01 02:02:45;;;;;;;4.60;3.45;;;17.70;99.90;;;;;;5017918;28;20018;-93
2022/08/01 02:05:15;;;;;;;4.68;3.30;;;17.70;99.90;;;;;;5020215;28;20097;-94
2022/08/01 02:07:46;;;;;;;8.15;3.58;;;17.60;99.90;;;;;;5017149;28;20046;-93
2022/08/01 02:10:12;;;;;;;5.28;3.35;;;17.60;99.90;;;;;;5014728;28;20543;-93
2022/08/01 02:12:45;;;;;;;4.28;3.45;;;17.50;99.90;;;;;;5015483;28;20095;-94
2022/08/01 02:15:12;;;;;;;;;;;17.50;99.90;;;;;;5012975;28;20124;-95
2022/08/01 02:17:43;;;;;;;5.57;3.50;;;17.50;99.90;;;;;;5010000;28;19909;-94
2022/08/01 02:20:11;;;;;;;5.07;3.40;;;17.50;99.90;;;;;;5010859;28;20053;-95
2022/08/01 02:22:42;;;;;;;6.57;3.17;;;17.40;99.90;;;;;;5010390;28;20041;-93
2022/08/01 02:25:25;;;;;;;5.03;3.00;;;17.50;99.90;;;;;;4995022;28;20371;-94
2022/08/01 02:28:01;;;;;;;;;;;17.50;99.90;;;;;;5010769;28;20029;-93
2022/08/01 02:30:35;;;;;;;6.40;3.38;;;17.50;99.90;;;;;;5011425;28;19920;-91
2022/08/01 02:33:16;;;;;;;4.40;3.25;;;17.50;99.90;;;;;;5012544;28;20030;-95
2022/08/01 02:35:43;;;;;;;4.03;3.20;;;17.50;99.90;;;;;;5012303;28;20010;-94
2022/08/01 02:38:13;;;;;;;4.55;3.95;;;17.50;99.90;;;;;;5014753;28;20034;-94
2022/08/01 02:40:52;;;;;;;6.80;3.47;;;17.50;99.90;;;;;;5002045;28;20042;-94
2022/08/01 02:43:23;;;;;;;6.88;3.20;;;17.50;99.90;;;;;;5018404;28;20034;-95
2022/08/01 02:45:53;;;;;;;6.45;3.67;;;17.40;99.90;;;;;;5020308;28;20038;-93
2022/08/01 02:48:22;;;;;;;5.82;3.90;;;17.40;99.90;;;;;;5020297;28;20033;-94
2022/08/01 02:50:58;;;;;;;9.25;3.33;;;17.40;99.90;;;;;;5019659;28;20065;-94
2022/08/01 02:53:27;;;;;;;4.82;3.47;;;17.30;99.90;;;;;;5016774;28;20025;-93
2022/08/01 02:55:54;;;;;;;7.15;3.40;;;17.20;99.90;;;;;;5015076;28;20033;-94
2022/08/01 02:58:24;;;;;;;5.20;3.08;;;17.20;99.90;;;;;;5016526;28;20060;-94
2022/08/01 03:00:55;;;;;;;6.88;3.30;;;17.20;99.90;;;;;;5031571;28;20036;-93
2022/08/01 03:03:23;;;;;;;4.88;3.03;;;17.10;99.90;;;;;;5014519;28;20034;-92
2022/08/01 03:05:59;;;;;;;5.85;3.67;;;17.10;99.90;;;;;;5018859;28;20481;-93
2022/08/01 03:08:27;;;;;;;4.40;3.35;;;17.00;99.90;;;;;;4998940;28;20034;-92
2022/08/01 03:10:55;;;;;;;4.82;3.22;;;17.10;99.90;;;;;;5014177;28;20073;-92
2022/08/01 03:13:22;;;;;;;7.97;3.40;;;17.00;99.90;;;;;;5011922;28;20040;-93
2022/08/01 03:15:54;;;;;;;6.63;3.40;;;17.00;99.90;;;;;;5031073;28;20029;-93
2022/08/01 03:18:26;;;;;;;5.40;3.13;;;16.90;99.90;;;;;;5012012;28;20041;-93
2022/08/01 03:20:55;;;;;;;5.72;2.80;;;16.80;99.90;;;;;;5013740;28;20054;-93
2022/08/01 03:23:22;;;;;;;8.52;2.83;;;16.80;99.90;;;;;;5016594;28;20033;-94
2022/08/01 03:25:51;;;;;;;15.43;3.50;;;16.80;99.90;;;;;;5012574;28;20105;-94
2022/08/01 03:28:22;;;;;;;6.43;2.95;;;16.80;99.90;;;;;;5013133;28;20473;-94
2022/08/01 03:30:51;;;;;;;5.65;3.00;;;16.80;99.90;;;;;;5031819;28;20029;-95
2022/08/01 03:33:19;;;;;;;9.30;2.83;;;16.80;99.90;;;;;;5017216;28;20030;-94
2022/08/01 03:35:55;;;;;;;4.93;2.40;;;16.80;99.90;;;;;;5016818;28;20029;-93
2022/08/01 03:38:32;;;;;;;5.63;2.63;;;16.80;99.90;;;;;;5017000;28;20026;-92
2022/08/01 03:41:08;;;;;;;5.03;3.00;;;16.80;99.90;;;;;;5000993;28;20053;-93
2022/08/01 03:44:09;;;;;;;6.05;3.42;;;17.00;99.90;;;;;;5017226;28;20018;-94
2022/08/01 03:46:42;;;;;;;;;;;17.00;99.90;;;;;;5030242;28;20053;-95
2022/08/01 03:49:19;;;;;;;2.97;2.67;;;17.10;99.90;;;;;;5033543;28;19909;-94
2022/08/01 03:51:49;;;;;;;3.03;2.40;;;17.10;99.90;;;;;;5015667;28;20060;-93
2022/08/01 03:54:20;;;;;;;4.00;2.75;;;17.10;99.90;;;;;;5017996;28;20033;-93
2022/08/01 03:56:48;;;;;;;5.57;2.38;;;17.10;99.90;;;;;;5002548;28;20025;-92
2022/08/01 03:59:16;;;;;;;4.90;2.97;;;17.10;99.90;;;;;;4997811;28;20030;-90
2022/08/01 04:01:43;;;;;;;6.40;2.70;;;17.00;99.90;;;;;;5014378;28;20045;-90
2022/08/01 04:04:09;;;;;;;7.93;2.35;;;17.00;99.90;;;;;;4997805;28;20520;-91
2022/08/01 04:06:39;;;;;;;4.05;2.53;;;17.00;99.90;;;;;;4997000;28;20033;-90
2022/08/01 04:09:07;;;;;;;2.90;2.60;;;17.00;99.90;;;;;;4997625;28;20173;-90
2022/08/01 04:11:33;;;;;;;6.60;2.58;;;17.00;99.90;;;;;;5013820;28;20033;-90
2022/08/01 04:13:58;;;;;;;4.28;2.50;;;16.90;99.90;;;;;;5014903;28;20049;-92
2022/08/01 04:16:24;;;;;;;4.80;2.63;;;16.90;99.90;;;;;;4997430;28;20033;-90
2022/08/01 04:22:44;;;;;;;6.32;3.25;;;16.80;99.90;;;;;;5015386;28;20564;-92
2022/08/01 04:25:19;;;;;;;3.30;2.50;;;16.90;99.90;;;;;;4997218;28;20030;-91
2022/08/01 04:27:49;;;;;;;4.80;2.50;;;16.90;99.90;;;;;;5013754;28;20377;-92
2022/08/01 04:30:17;;;;;;;3.70;2.53;;;17.00;99.90;;;;;;4996689;28;20046;-90
2022/08/01 04:32:46;;;;;;;6.15;2.53;;;17.00;99.90;;;;;;4996952;28;20504;-90
2022/08/01 04:35:16;;;;;;;3.45;2.50;;;17.10;99.90;;;;;;4997094;28;20473;-89
2022/08/01 04:37:45;;;;;;;2.58;1.98;;;17.30;99.90;;;;;;5013671;28;20363;-91
2022/08/01 04:40:11;;;;;;;3.22;2.13;;;17.40;99.90;;;;;;4997230;28;20069;-90
2022/08/01 04:42:37;;;;;;;2.80;2.42;;;17.50;99.90;;;;;;4996961;28;20030;-91
2022/08/01 04:45:04;;;;;;;4.55;2.40;;;17.60;99.90;;;;;;4997033;28;20056;-91
2022/08/01 04:47:30;;;;;;;5.95;2.10;;;17.70;99.90;;;;;;4996982;28;20037;-90
2022/08/01 04:49:56;;;;;;;5.75;2.10;;;17.80;99.90;;;;;;5014532;28;20083;-89
2022/08/01 04:52:22;;;;;;;6.25;2.30;;;17.80;99.90;;;;;;5012998;28;20026;-89
2022/08/01 04:54:48;;;;;;;3.83;2.40;;;17.90;99.90;;;;;;5012554;28;20033;-92
2022/08/01 04:57:36;;;;;;;5.63;2.28;;;17.90;99.90;;;;;;4996205;28;20033;-90
2022/08/01 05:00:03;;;;;;;2.53;2.25;;;17.90;99.90;;;;;;4996560;28;20474;-89
2022/08/01 05:02:29;;;;;;;4.00;2.13;;;18.00;99.90;;;;;;5012899;28;20556;-91
2022/08/01 05:04:55;;;;;;;7.65;2.58;;;18.00;99.90;;;;;;5012270;28;20032;-91
2022/08/01 05:07:21;;;;;;;7.03;3.20;;;18.00;99.90;;;;;;5012886;28;20037;-91
2022/08/01 05:09:47;;;;;;;3.75;2.00;;;18.00;99.90;;;;;;4996364;28;20133;-92
2022/08/01 05:12:18;;;;;;;4.25;2.40;;;18.20;99.90;;;;;;4996682;28;20113;-90
2022/08/01 05:14:45;;;;;;;2.10;1.88;;;18.30;99.90;;;;;;4996071;28;20140;-91
2022/08/01 05:17:11;;;;;;;5.55;2.20;;;18.50;99.90;;;;;;4996914;28;20045;-90
2022/08/01 05:19:38;;;;;;;4.63;2.35;;;18.70;99.90;;;;;;4996490;28;20029;-90
2022/08/01 05:22:08;;;;;;;5.07;2.05;;;18.90;99.90;;;;;;4996634;28;20209;-91
2022/08/01 05:24:36;;;;;;;3.97;2.30;;;19.00;99.90;;;;;;4996497;28;20062;-91
2022/08/01 05:27:01;;;;;;;9.38;2.22;;;19.20;99.90;;;;;;5012721;28;20053;-91
2022/08/01 05:29:27;;;;;;;2.40;2.08;;;19.20;99.90;;;;;;5012719;28;20030;-92
2022/08/01 05:31:53;;;;;;;5.18;2.10;;;19.40;99.90;;;;;;4996297;28;20061;-91
2022/08/01 05:34:20;;;;;;;2.58;1.60;;;19.50;99.90;;;;;;5012572;28;20018;-90
2022/08/01 05:36:46;;;;;;;5.28;2.40;;;19.50;99.90;;;;;;4994701;28;20037;-91
2022/08/01 05:39:13;;;;;;;3.20;1.90;;;19.40;99.90;;;;;;5012556;28;20030;-91
2022/08/01 05:41:39;;;;;;;3.38;2.58;;;19.50;99.90;;;;;;5013679;28;20063;-91
2022/08/01 05:44:05;;;;;;;5.72;2.55;;;19.40;99.90;;;;;;5015216;28;20044;-91
2022/08/01 05:46:31;;;;;;;3.95;2.05;;;19.40;99.90;;;;;;4999463;28;20030;-91
2022/08/01 05:48:58;;;;;;;3.30;1.70;;;19.40;99.90;;;;;;4999478;28;20096;-91
2022/08/01 05:51:24;;;;;;;3.58;2.42;;;19.40;99.90;;;;;;5015143;28;20037;-91
2022/08/01 05:53:50;;;;;;;4.50;1.75;;;19.40;99.90;;;;;;4998988;28;20096;-91
2022/08/01 05:56:41;;;;;;;9.75;2.22;;;19.30;99.90;;;;;;5015603;28;20026;-90
2022/08/01 05:59:06;;;;;;;2.08;1.83;;;19.20;99.90;;;;;;4999240;28;20040;-91
2022/08/01 06:01:32;;;;;;;7.07;1.85;;;19.20;99.90;;;;;;5016493;28;20025;-90
2022/08/01 06:04:01;;;;;;;3.00;2.10;;;19.20;99.90;;;;;;5000211;28;20037;-89
2022/08/01 06:06:27;;;;;;;4.97;2.30;;;19.20;99.90;;;;;;5016243;28;20040;-90
2022/08/01 06:08:52;;;;;;;6.55;2.55;;;19.30;99.90;;;;;;5000124;28;20034;-90
2022/08/01 06:11:18;;;;;;;5.18;2.13;;;19.40;99.90;;;;;;4999774;28;20121;-90
2022/08/01 06:14:01;;;;;;;6.07;1.90;;;19.40;99.90;;;;;;4999434;28;20030;-89
2022/08/01 06:16:27;;;;;;;5.32;2.55;;;19.40;99.90;;;;;;4998637;28;20065;-90
2022/08/01 06:18:53;;;;;;;5.72;1.88;;;19.40;99.90;;;;;;5016331;28;20062;-90
2022/08/01 06:21:19;;;;;;;5.03;2.13;;;19.60;99.90;;;;;;4998852;28;20045;-90
2022/08/01 06:23:45;;;;;;;3.45;2.20;;;19.60;99.90;;;;;;4997852;28;20097;-90
2022/08/01 06:26:10;;;;;;;3.60;1.95;;;19.60;99.90;;;;;;4998320;28;20034;-90
2022/08/01 06:28:37;;;;;;;4.43;2.20;;;19.60;99.90;;;;;;4998690;28;20029;-90
2022/08/01 06:31:03;;;;;;;3.58;2.20;;;19.70;99.90;;;;;;4998723;28;20591;-89
2022/08/01 06:33:29;;;;;;;5.78;2.10;;;19.80;99.90;;;;;;5014900;28;20121;-90
2022/08/01 06:35:54;;;;;;;4.85;1.90;;;20.00;99.90;;;;;;4998713;28;20397;-90
2022/08/01 06:38:20;;;;;;;3.22;2.05;;;20.30;99.90;;;;;;4998609;28;20026;-91
2022/08/01 06:40:46;;;;;;;3.55;1.90;;;20.50;99.90;;;;;;5014747;28;20030;-89
2022/08/01 06:43:12;;;;;;;2.58;1.75;;;20.60;99.90;;;;;;4998203;28;20032;-89
2022/08/01 06:45:39;;;;;;;5.55;1.90;;;20.70;99.90;;;;;;4997915;28;20037;-90
2022/08/01 06:48:05;;;;;;;6.63;1.80;;;20.90;99.90;;;;;;4998620;28;20069;-90
2022/08/01 06:50:31;;;;;;;3.55;2.25;;;21.10;99.90;;;;;;4996944;28;20069;-91
2022/08/01 06:52:57;;;;;;;2.83;1.60;;;21.20;99.90;;;;;;5013717;28;20045;-91
2022/08/01 06:55:23;;;;;;;4.82;2.55;;;21.30;99.90;;;;;;4997474;28;20034;-89
2022/08/01 06:57:51;;;;;;;4.28;2.20;;;21.30;99.90;;;;;;4997439;28;20100;-91
2022/08/01 07:00:20;;;;;;;3.30;1.73;;;21.40;99.90;;;;;;4997627;28;20097;-92
2022/08/01 07:02:46;;;;;;;6.32;1.77;;;21.50;99.90;;;;;;5014313;28;20129;-91
2022/08/01 07:05:12;;;;;;;2.38;1.77;;;21.80;99.90;;;;;;5014400;28;20026;-91
2022/08/01 07:07:38;;;;;;;4.65;1.88;;;21.90;99.90;;;;;;4998331;28;20076;-90
2022/08/01 07:10:05;;;;;;;5.90;1.92;;;21.90;99.90;;;;;;4997814;28;20041;-89
2022/08/01 07:12:32;;;;;;;2.80;1.98;;;22.00;99.90;;;;;;4998052;28;20033;-87
2022/08/01 07:15:05;;;;;;;4.30;1.88;;;22.10;99.90;;;;;;5014121;28;20045;-89
2022/08/01 07:17:31;;;;;;;4.90;2.05;;;22.10;99.90;;;;;;4997662;28;20068;-88
2022/08/01 07:19:56;;;;;;;6.35;2.20;;;21.70;99.90;;;;;;5014114;28;20033;-89
2022/08/01 07:22:22;;;;;;;4.60;2.38;;;21.40;99.90;;;;;;5014051;28;20041;-88
2022/08/01 07:25:06;;;;;;;114.40;61.67;;;21.30;99.90;;;;;;5014140;28;20085;-87
2022/08/01 07:27:32;;;;;;;3.53;2.65;;;21.40;99.90;;;;;;5014400;28;20044;-89
2022/08/01 07:29:58;;;;;;;4.63;2.30;;;21.50;99.90;;;;;;4997564;28;20037;-88
2022/08/01 07:32:47;;;;;;;3.08;2.25;;;21.60;99.90;;;;;;5014967;28;20022;-89
2022/08/01 07:35:13;;;;;;;9.40;2.50;;;21.30;99.90;;;;;;4996808;28;20026;-89
2022/08/01 07:37:39;;;;;;;3.25;1.73;;;21.10;99.90;;;;;;5013986;28;20371;-90
2022/08/01 07:40:05;;;;;;;7.60;2.40;;;21.00;99.90;;;;;;4997557;28;20132;-89
2022/08/01 07:42:32;;;;;;;3.28;1.90;;;21.10;99.90;;;;;;5014091;28;20026;-90
2022/08/01 07:44:57;;;;;;;3.83;2.58;;;21.10;99.90;;;;;;5013517;28;20038;-88
2022/08/01 07:47:26;;;;;;;3.50;2.38;;;21.10;99.90;;;;;;5013644;28;20496;-90
2022/08/01 07:49:58;;;;;;;3.17;2.20;;;20.80;99.90;;;;;;5013764;28;20116;-89
2022/08/01 07:52:24;;;;;;;3.72;2.20;;;20.60;99.90;;;;;;4997573;28;20127;-89
2022/08/01 07:55:14;;;;;;;3.35;2.03;;;20.60;99.90;;;;;;5013659;28;20034;-90
2022/08/01 07:57:40;;;;;;;5.47;2.25;;;20.70;99.90;;;;;;4997422;28;20026;-89
2022/08/01 08:00:08;;;;;;;3.53;2.47;;;20.70;99.90;;;;;;5013649;28;20026;-89
2022/08/01 08:02:33;;;;;;;3.03;2.22;;;20.90;99.90;;;;;;5013729;28;20036;-89
2022/08/01 08:04:59;;;;;;;4.50;2.97;;;21.00;99.90;;;;;;5012534;28;20466;-88
2022/08/01 08:07:25;;;;;;;3.50;2.30;;;21.10;99.90;;;;;;5013301;28;20034;-89
2022/08/01 08:09:51;;;;;;;3.65;2.20;;;21.30;99.90;;;;;;5013137;28;20082;-89
2022/08/01 08:12:16;;;;;;;6.90;2.60;;;21.60;99.90;;;;;;4996952;28;20026;-88
2022/08/01 08:14:42;;;;;;;3.90;2.25;;;21.90;99.90;;;;;;4996761;28;20682;-88
2022/08/01 08:17:07;;;;;;;4.53;2.33;;;23.20;99.90;;;;;;4996818;28;20021;-88
2022/08/01 08:19:33;;;;;;;3.60;2.20;;;23.50;99.90;;;;;;5012885;28;20033;-88
2022/08/01 08:22:00;;;;;;;2.65;2.20;;;23.50;99.90;;;;;;5012909;28;20581;-89
2022/08/01 08:24:27;;;;;;;3.28;2.60;;;23.30;99.90;;;;;;4996311;28;20477;-89
2022/08/01 08:26:55;;;;;;;4.25;2.42;;;22.90;99.90;;;;;;4996442;28;20038;-88
2022/08/01 08:29:22;;;;;;;2.47;2.28;;;22.80;99.90;;;;;;4996554;28;20033;-89
2022/08/01 08:31:48;;;;;;;5.93;2.30;;;22.90;99.90;;;;;;4996477;28;20397;-88
2022/08/01 08:34:14;;;;;;;4.85;2.42;;;23.30;99.90;;;;;;4996249;28;20034;-88
2022/08/01 08:36:40;;;;;;;2.00;1.80;;;23.80;99.90;;;;;;4996354;28;20030;-88
2022/08/01 08:39:06;;;;;;;3.05;2.03;;;24.30;99.90;;;;;;4996569;28;20030;-89
2022/08/01 08:45:19;;;;;;;2.60;1.75;;;24.80;99.90;;;;;;5015355;28;20550;-90
2022/08/01 08:47:46;;;;;;;2.58;2.00;;;26.20;99.90;;;;;;5012879;28;20069;-89
2022/08/01 08:50:12;;;;;;;3.00;1.70;;;25.90;99.90;;;;;;5012992;28;20033;-90
2022/08/01 08:52:39;;;;;;;2.70;1.83;;;25.90;99.90;;;;;;4996124;28;20564;-87
2022/08/01 08:55:05;;;;;;;2.20;1.55;;;25.50;99.90;;;;;;4996260;28;20515;-89
2022/08/01 08:57:32;;;;;;;4.25;2.10;;;25.40;99.90;;;;;;4995909;28;20030;-88
2022/08/01 08:59:58;;;;;;;3.10;1.67;;;24.90;99.90;;;;;;4995485;28;20037;-89
2022/08/01 09:03:04;;;;;;;2.45;1.23;;;25.70;99.90;;;;;;5012141;28;20037;-89
2022/08/01 09:05:30;;;;;;;3.22;1.63;;;27.50;99.90;;;;;;5012487;28;20037;-89
2022/08/01 09:07:55;;;;;;;5.03;1.60;;;28.40;99.90;;;;;;5013029;28;20034;-89
2022/08/01 09:11:17;;;;;;;2.38;1.38;;;29.10;99.90;;;;;;5012613;28;20030;-90
2022/08/01 09:14:05;;;;;;;3.08;1.42;;;29.90;99.90;;;;;;5012281;28;20026;-91
2022/08/01 09:16:33;;;;;;;3.90;1.45;;;29.90;99.90;;;;;;4999507;28;20037;-89
2022/08/01 09:19:13;;;;;;;3.90;1.75;;;29.80;99.90;;;;;;5016231;28;20477;-88
2022/08/01 09:21:40;;;;;;;3.07;1.10;;;30.00;99.90;;;;;;5017757;28;20596;-89
2022/08/01 09:24:15;;;;;;;2.45;1.65;;;30.20;98.80;;;;;;5015782;28;20076;-89
2022/08/01 09:26:41;;;;;;;1.50;1.40;;;29.60;99.00;;;;;;4999596;28;20388;-88
2022/08/01 09:29:16;;;;;;;4.97;1.40;;;28.70;99.90;;;;;;5016022;28;20118;-88
2022/08/01 09:31:43;;;;;;;3.88;1.40;;;29.20;99.90;;;;;;5015773;28;20505;-89
2022/08/01 09:34:10;;;;;;;1.75;1.17;;;29.50;99.30;;;;;;4999506;28;20040;-88
2022/08/01 09:36:51;;;;;;;2.00;1.30;;;30.20;98.00;;;;;;4999856;28;20464;-88
2022/08/01 09:39:18;;;;;;;2.67;1.35;;;30.00;97.50;;;;;;5000112;28;20551;-88
2022/08/01 09:41:44;;;;;;;3.67;1.30;;;30.20;97.00;;;;;;5016295;28;20089;-89
2022/08/01 09:44:09;;;;;;;3.88;1.40;;;30.20;96.10;;;;;;5015322;28;20038;-89
2022/08/01 09:46:36;;;;;;;2.95;1.20;;;30.80;96.70;;;;;;5015577;28;20065;-88
2022/08/01 09:49:06;;;;;;;2.90;1.10;;;31.10;95.20;;;;;;4999451;28;20076;-90
2022/08/01 09:51:37;;;;;;;1.85;0.90;;;30.70;95.10;;;;;;4999660;28;20033;-88
2022/08/01 09:54:05;;;;;;;4.82;1.35;;;30.50;94.70;;;;;;4999138;28;20049;-88
2022/08/01 09:56:40;;;;;;;3.15;1.00;;;30.60;94.20;;;;;;4999483;28;20129;-90
2022/08/01 09:59:06;;;;;;;2.35;1.00;;;30.40;94.20;;;;;;4999155;28;20037;-89
2022/08/01 10:01:45;;;;;;;1.25;1.10;;;30.30;93.40;;;;;;4999442;28;20037;-89
2022/08/01 10:04:21;;;;;;;5.88;1.65;;;30.40;93.90;;;;;;5015652;28;20072;-88
2022/08/01 10:06:52;;;;;;;1.50;1.05;;;30.20;94.40;;;;;;5015842;28;20504;-89
2022/08/01 10:09:31;;;;;;;2.55;1.27;;;29.50;93.80;;;;;;4999168;28;20121;-88
2022/08/01 10:11:59;;;;;;;2.47;0.90;;;28.80;94.40;;;;;;5015600;28;20108;-89
2022/08/01 10:14:27;;;;;;;2.05;1.30;;;28.60;95.40;;;;;;4999280;28;20041;-89
2022/08/01 10:16:55;;;;;;;1.38;1.10;;;28.20;95.90;;;;;;4998770;28;20057;-88
2022/08/01 10:19:22;;;;;;;1.63;1.08;;;27.30;97.00;;;;;;4998980;28;20529;-88
2022/08/01 10:22:40;;;;;;;2.15;1.00;;;26.30;98.20;;;;;;4999238;28;20026;-90
2022/08/01 10:25:07;;;;;;;6.20;1.58;;;26.20;99.10;;;;;;5015364;28;20488;-89
2022/08/01 10:27:36;;;;;;;4.47;1.20;;;26.60;99.90;;;;;;4998139;28;20037;-89
2022/08/01 10:30:04;;;;;;;2.33;1.10;;;26.70;99.60;;;;;;4998663;28;20738;-89
2022/08/01 10:32:31;;;;;;;1.00;0.85;;;26.80;99.30;;;;;;4998661;28;20023;-87
2022/08/01 10:34:58;;;;;;;2.83;1.20;;;27.10;98.20;;;;;;4998270;28;20112;-88
2022/08/01 10:37:25;;;;;;;1.30;1.10;;;27.30;97.40;;;;;;5015061;28;20083;-89
2022/08/01 10:39:52;;;;;;;1.40;1.00;;;27.80;97.50;;;;;;5014951;28;20121;-90
2022/08/01 10:42:18;;;;;;;2.55;1.70;;;28.50;96.80;;;;;;5015129;28;20038;-90
2022/08/01 10:44:47;;;;;;;1.55;1.00;;;29.00;96.40;;;;;;4998384;28;20096;-90
2022/08/01 10:47:20;;;;;;;1.17;1.00;;;29.30;95.40;;;;;;5014832;28;20513;-90
2022/08/01 10:49:51;;;;;;;4.10;0.93;;;28.70;95.30;;;;;;4998423;28;20121;-89
2022/08/01 10:52:17;;;;;;;;;;;28.00;96.10;;;;;;4999030;28;20065;-89
2022/08/01 10:54:43;;;;;;;3.88;2.80;;;28.10;95.50;;;;;;4997792;28;19935;-89
2022/08/01 10:57:10;;;;;;;4.72;1.23;;;28.10;95.60;;;;;;5014234;28;20033;-88
2022/08/01 10:59:51;;;;;;;4.18;1.55;;;27.20;97.00;;;;;;4998292;28;20034;-89
2022/08/01 11:02:31;;;;;;;1.00;0.90;;;26.60;98.30;;;;;;5015116;28;20520;-89
2022/08/01 11:05:06;;;;;;;2.05;1.10;;;27.10;98.50;;;;;;5014753;28;20030;-90
2022/08/01 11:07:52;;;;;;;1.45;1.13;;;27.40;98.20;;;;;;4998298;28;20041;-89
2022/08/01 11:10:39;;;;;;;2.63;1.20;;;27.70;97.90;;;;;;5014495;28;20095;-88
2022/08/01 11:13:11;;;;;;;1.58;1.13;;;27.90;97.40;;;;;;5015443;28;20017;-89
2022/08/01 11:15:37;;;;;;;2.80;0.70;;;28.20;97.70;;;;;;4997881;28;20034;-89
2022/08/01 11:18:37;;;;;;;1.88;1.17;;;29.10;96.20;;;;;;5014821;28;20036;-88
2022/08/01 11:21:03;;;;;;;1.15;0.82;;;28.50;95.30;;;;;;4998207;28;20045;-88
2022/08/01 11:23:32;;;;;;;3.38;0.95;;;28.60;96.00;;;;;;4997404;28;20136;-89
2022/08/01 11:26:00;;;;;;;2.28;0.70;;;28.70;94.40;;;;;;4997680;28;20367;-92
2022/08/01 11:28:29;;;;;;;2.00;0.90;;;28.70;93.00;;;;;;5014315;28;20492;-89
2022/08/01 11:31:07;;;;;;;2.00;0.90;;;28.10;94.20;;;;;;4997601;28;20136;-89
2022/08/01 11:33:42;;;;;;;1.38;0.90;;;27.60;95.00;;;;;;4997737;28;20057;-91
2022/08/01 11:36:10;;;;;;;3.15;0.82;;;26.90;96.30;;;;;;4997790;28;20040;-90
2022/08/01 11:39:12;;;;;;;1.58;1.08;;;26.70;96.80;;;;;;4997654;28;20029;-89
2022/08/01 11:41:38;;;;;;;1.23;1.02;;;26.80;97.80;;;;;;5014129;28;20038;-89
2022/08/01 11:44:08;;;;;;;5.57;1.17;;;27.20;97.70;;;;;;5013644;28;20477;-88
2022/08/01 11:46:55;;;;;;;1.10;1.00;;;27.80;95.70;;;;;;4997703;28;20026;-89
2022/08/01 11:49:36;;;;;;;4.25;1.83;;;28.20;95.00;;;;;;4997278;28;20129;-89
2022/08/01 11:52:08;;;;;;;3.55;0.95;;;28.30;94.80;;;;;;4997451;28;20034;-88
2022/08/01 11:54:44;;;;;;;1.10;0.73;;;28.70;95.40;;;;;;4996679;28;20041;-88
2022/08/01 11:57:22;;;;;;;2.40;0.90;;;28.90;94.40;;;;;;4997183;28;20068;-90
2022/08/01 12:00:23;;;;;;;2.03;1.02;;;29.20;93.30;;;;;;5013484;28;20815;-89
2022/08/01 12:02:58;;;;;;;2.65;0.85;;;29.00;93.30;;;;;;4997457;28;20477;-89
2022/08/01 12:05:23;;;;;;;1.65;0.60;;;29.40;93.00;;;;;;5013088;28;20377;-88
2022/08/01 12:07:51;;;;;;;1.20;1.10;;;29.00;93.00;;;;;;4997227;28;20045;-89
2022/08/01 12:10:49;;;;;;;6.07;1.02;;;28.60;93.20;;;;;;5013147;28;20034;-90
2022/08/01 12:13:15;;;;;;;2.40;1.02;;;28.40;94.10;;;;;;5012852;28;20029;-89
2022/08/01 12:15:41;;;;;;;2.47;1.35;;;28.60;94.50;;;;;;5015966;28;20040;-90
2022/08/01 12:18:07;;;;;;;1.42;1.10;;;28.60;94.20;;;;;;5013920;28;20030;-90
2022/08/01 12:21:02;;;;;;;3.40;1.38;;;28.80;93.80;;;;;;5013324;28;20061;-89
2022/08/01 12:23:28;;;;;;;3.72;0.90;;;28.50;93.60;;;;;;5013141;28;20087;-90
2022/08/01 12:25:54;;;;;;;1.42;1.20;;;27.70;94.70;;;;;;4997292;28;20128;-89
2022/08/01 12:28:20;;;;;;;3.03;1.20;;;27.80;95.50;;;;;;5013261;28;20600;-90
2022/08/01 12:30:47;;;;;;;1.48;1.10;;;28.10;94.70;;;;;;5013024;28;20030;-90
2022/08/01 12:33:18;;;;;;;6.00;1.20;;;28.20;94.20;;;;;;4996216;28;20029;-90
2022/08/01 12:35:44;;;;;;;2.45;1.20;;;27.80;94.10;;;;;;5013039;28;20026;-89
2022/08/01 12:38:24;;;;;;;2.80;1.20;;;27.80;94.60;;;;;;4996306;28;20393;-89
2022/08/01 12:40:50;;;;;;;1.58;0.90;;;28.00;94.00;;;;;;4996330;28;20034;-90
2022/08/01 12:43:18;;;;;;;1.65;1.30;;;28.70;93.40;;;;;;4996552;28;20037;-90
2022/08/01 12:45:46;;;;;;;0.98;0.93;;;29.60;92.90;;;;;;4996263;28;20486;-90
2022/08/01 12:48:13;;;;;;;2.15;1.02;;;29.70;91.20;;;;;;4996155;28;20042;-90
2022/08/01 12:50:42;;;;;;;3.15;0.82;;;29.50;91.40;;;;;;4995457;28;20038;-89
2022/08/01 12:53:14;;;;;;;3.70;1.02;;;29.50;92.10;;;;;;4995563;28;20037;-88
2022/08/01 12:55:48;;;;;;;1.50;0.98;;;29.50;89.90;;;;;;5012478;28;20509;-89
2022/08/01 12:58:15;;;;;;;1.88;0.93;;;29.00;91.10;;;;;;4995946;28;20084;-87
2022/08/01 13:00:43;;;;;;;4.72;1.00;;;28.50;91.90;;;;;;4995839;28;20116;-88
2022/08/01 13:03:14;;;;;;;1.50;1.00;;;28.40;90.60;;;;;;5013682;28;20048;-89
2022/08/01 13:05:54;;;;;;;1.92;1.35;;;29.00;91.50;;;;;;5012764;28;20117;-88
2022/08/01 13:08:41;;;;;;;1.33;1.08;;;29.40;90.30;;;;;;5013051;28;20216;-92
2022/08/01 13:11:09;;;;;;;4.75;1.13;;;29.90;90.10;;;;;;4995837;28;20042;-89
2022/08/01 13:13:40;;;;;;;1.73;1.00;;;30.20;90.00;;;;;;5012101;28;20375;-88